sensor_id;sensor_type;location;lat;lon;timestamp;temperature;humidity
292;DHT22;23311;48.776;9.162;2023-05-07T00:01:29;14.50;95.50
292;DHT22;23311;48.776;9.162;2023-05-07T00:03:58;14.50;95.50
292;DHT22;23311;48.776;9.162;2023-05-07T00:06:26;14.70;95.50
292;DHT22;23311;48.776;9.162;2023-05-07T00:08:56;14.90;95.50
292;DHT22;23311;48.776;9.162;2023-05-07T00:11:25;14.60;95.50
292;DHT22;23311;48.776;9.162;2023-05-07T00:13:53;14.40;95.50
292;DHT22;23311;48.776;9.162;2023-05-07T00:16:23;14.30;95.50
292;DHT22;23311;48.776;9.162;2023-05-07T00:18:51;14.30;95.50
292;DHT22;23311;48.776;9.162;2023-05-07T00:21:19;14.30;95.50
292;DHT22;23311;48.776;9.162;2023-05-07T00:23:48;14.20;95.50
292;DHT22;23311;48.776;9.162;2023-05-07T00:26:16;14.30;95.50
292;DHT22;23311;48.776;9.162;2023-05-07T00:28:44;14.30;95.50
292;DHT22;23311;48.776;9.162;2023-05-07T00:31:12;14.40;95.50
292;DHT22;23311;48.776;9.162;2023-05-07T00:33:41;14.30;95.50
292;DHT22;23311;48.776;9.162;2023-05-07T00:36:09;14.20;95.50
292;DHT22;23311;48.776;9.162;2023-05-07T00:38:37;14.10;95.50
292;DHT22;23311;48.776;9.162;2023-05-07T00:41:06;14.10;95.50
292;DHT22;23311;48.776;9.162;2023-05-07T00:43:34;14.20;95.50
292;DHT22;23311;48.776;9.162;2023-05-07T00:46:02;14.20;95.50
292;DHT22;23311;48.776;9.162;2023-05-07T00:48:31;14.10;95.50
292;DHT22;23311;48.776;9.162;2023-05-07T00:51:00;14.10;95.50
292;DHT22;23311;48.776;9.162;2023-05-07T00:53:30;14.10;95.50
292;DHT22;23311;48.776;9.162;2023-05-07T00:55:58;14.10;95.50
292;DHT22;23311;48.776;9.162;2023-05-07T00:58:27;14.20;95.50
292;DHT22;23311;48.776;9.162;2023-05-07T01:00:56;14.10;95.50
292;DHT22;23311;48.776;9.162;2023-05-07T01:03:24;14.10;95.50
292;DHT22;23311;48.776;9.162;2023-05-07T01:05:54;14.00;95.50
292;DHT22;23311;48.776;9.162;2023-05-07T01:08:26;13.90;95.50
292;DHT22;23311;48.776;9.162;2023-05-07T01:10:56;13.70;95.50
292;DHT22;23311;48.776;9.162;2023-05-07T01:13:25;13.90;95.50
292;DHT22;23311;48.776;9.162;2023-05-07T01:15:53;14.10;95.50
292;DHT22;23311;48.776;9.162;2023-05-07T01:18:21;14.10;95.50
292;DHT22;23311;48.776;9.162;2023-05-07T01:20:50;13.90;95.50
292;DHT22;23311;48.776;9.162;2023-05-07T01:23:19;13.80;95.50
292;DHT22;23311;48.776;9.162;2023-05-07T01:25:51;13.90;95.50
292;DHT22;23311;48.776;9.162;2023-05-07T01:28:20;13.90;95.50
292;DHT22;23311;48.776;9.162;2023-05-07T01:30:50;13.80;95.50
292;DHT22;23311;48.776;9.162;2023-05-07T01:33:21;13.70;95.50
292;DHT22;23311;48.776;9.162;2023-05-07T01:35:52;13.60;95.50
292;DHT22;23311;48.776;9.162;2023-05-07T01:38:22;13.50;95.50
292;DHT22;23311;48.776;9.162;2023-05-07T01:40:51;13.70;95.50
292;DHT22;23311;48.776;9.162;2023-05-07T01:43:20;13.60;95.50
292;DHT22;23311;48.776;9.162;2023-05-07T01:45:48;13.50;95.50
292;DHT22;23311;48.776;9.162;2023-05-07T01:48:18;13.40;95.50
292;DHT22;23311;48.776;9.162;2023-05-07T01:50:46;13.40;95.50
292;DHT22;23311;48.776;9.162;2023-05-07T01:53:15;13.40;95.50
292;DHT22;23311;48.776;9.162;2023-05-07T01:55:44;13.40;95.50
292;DHT22;23311;48.776;9.162;2023-05-07T01:58:12;13.40;95.50
292;DHT22;23311;48.776;9.162;2023-05-07T02:00:40;13.30;95.50
292;DHT22;23311;48.776;9.162;2023-05-07T02:03:08;13.30;95.50
292;DHT22;23311;48.776;9.162;2023-05-07T02:05:37;13.40;95.50
292;DHT22;23311;48.776;9.162;2023-05-07T02:08:05;13.40;95.50
292;DHT22;23311;48.776;9.162;2023-05-07T02:10:33;13.30;95.50
292;DHT22;23311;48.776;9.162;2023-05-07T02:13:04;13.30;95.50
292;DHT22;23311;48.776;9.162;2023-05-07T02:15:32;13.40;95.50
292;DHT22;23311;48.776;9.162;2023-05-07T02:18:03;13.40;95.50
292;DHT22;23311;48.776;9.162;2023-05-07T02:20:31;13.50;95.50
292;DHT22;23311;48.776;9.162;2023-05-07T02:22:59;13.60;95.50
292;DHT22;23311;48.776;9.162;2023-05-07T02:25:28;13.70;95.50
292;DHT22;23311;48.776;9.162;2023-05-07T02:27:57;13.70;95.50
292;DHT22;23311;48.776;9.162;2023-05-07T02:30:26;13.70;95.50
292;DHT22;23311;48.776;9.162;2023-05-07T02:32:54;13.60;95.50
292;DHT22;23311;48.776;9.162;2023-05-07T02:35:24;13.50;95.50
292;DHT22;23311;48.776;9.162;2023-05-07T02:37:52;13.40;95.50
292;DHT22;23311;48.776;9.162;2023-05-07T02:40:20;13.30;95.50
292;DHT22;23311;48.776;9.162;2023-05-07T02:42:48;13.20;95.50
292;DHT22;23311;48.776;9.162;2023-05-07T02:45:16;13.20;95.50
292;DHT22;23311;48.776;9.162;2023-05-07T02:47:46;13.20;95.50
292;DHT22;23311;48.776;9.162;2023-05-07T02:50:14;13.20;95.50
292;DHT22;23311;48.776;9.162;2023-05-07T02:52:45;13.20;95.50
292;DHT22;23311;48.776;9.162;2023-05-07T02:55:14;13.10;95.50
292;DHT22;23311;48.776;9.162;2023-05-07T02:57:42;13.10;95.50
292;DHT22;23311;48.776;9.162;2023-05-07T03:00:11;13.00;95.50
292;DHT22;23311;48.776;9.162;2023-05-07T03:02:39;13.00;95.50
292;DHT22;23311;48.776;9.162;2023-05-07T03:05:09;13.00;95.50
292;DHT22;23311;48.776;9.162;2023-05-07T03:07:37;13.00;95.50
292;DHT22;23311;48.776;9.162;2023-05-07T03:10:06;13.00;95.50
292;DHT22;23311;48.776;9.162;2023-05-07T03:12:35;12.90;95.50
292;DHT22;23311;48.776;9.162;2023-05-07T03:15:03;12.70;95.50
292;DHT22;23311;48.776;9.162;2023-05-07T03:17:32;12.50;95.50
292;DHT22;23311;48.776;9.162;2023-05-07T03:20:00;12.40;95.50
292;DHT22;23311;48.776;9.162;2023-05-07T03:22:29;12.30;95.50
292;DHT22;23311;48.776;9.162;2023-05-07T03:24:57;12.30;95.50
292;DHT22;23311;48.776;9.162;2023-05-07T03:27:25;12.40;95.50
292;DHT22;23311;48.776;9.162;2023-05-07T03:29:53;12.40;95.50
292;DHT22;23311;48.776;9.162;2023-05-07T03:32:21;12.30;95.50
292;DHT22;23311;48.776;9.162;2023-05-07T03:34:49;12.30;95.50
292;DHT22;23311;48.776;9.162;2023-05-07T03:37:17;12.20;95.50
292;DHT22;23311;48.776;9.162;2023-05-07T03:39:47;12.10;95.50
292;DHT22;23311;48.776;9.162;2023-05-07T03:42:15;12.10;95.50
292;DHT22;23311;48.776;9.162;2023-05-07T03:44:43;12.10;95.50
292;DHT22;23311;48.776;9.162;2023-05-07T03:47:11;12.30;95.50
292;DHT22;23311;48.776;9.162;2023-05-07T03:49:40;12.40;95.50
292;DHT22;23311;48.776;9.162;2023-05-07T03:52:08;12.30;95.50
292;DHT22;23311;48.776;9.162;2023-05-07T03:54:36;12.20;95.50
292;DHT22;23311;48.776;9.162;2023-05-07T03:57:05;12.10;95.50
292;DHT22;23311;48.776;9.162;2023-05-07T03:59:33;12.10;95.50
292;DHT22;23311;48.776;9.162;2023-05-07T04:02:01;12.00;95.50
292;DHT22;23311;48.776;9.162;2023-05-07T04:04:31;12.30;95.50
292;DHT22;23311;48.776;9.162;2023-05-07T04:06:59;12.40;95.50
292;DHT22;23311;48.776;9.162;2023-05-07T04:09:28;12.60;95.50
292;DHT22;23311;48.776;9.162;2023-05-07T04:11:56;12.50;95.50
292;DHT22;23311;48.776;9.162;2023-05-07T04:14:25;12.50;95.50
292;DHT22;23311;48.776;9.162;2023-05-07T04:16:53;12.30;95.50
292;DHT22;23311;48.776;9.162;2023-05-07T04:19:21;12.30;95.50
292;DHT22;23311;48.776;9.162;2023-05-07T04:21:49;12.40;95.50
292;DHT22;23311;48.776;9.162;2023-05-07T04:24:17;12.60;95.50
292;DHT22;23311;48.776;9.162;2023-05-07T04:26:45;12.70;95.50
292;DHT22;23311;48.776;9.162;2023-05-07T04:29:14;12.70;95.50
292;DHT22;23311;48.776;9.162;2023-05-07T04:31:43;12.70;95.50
292;DHT22;23311;48.776;9.162;2023-05-07T04:34:12;12.80;95.50
292;DHT22;23311;48.776;9.162;2023-05-07T04:36:42;12.80;95.50
292;DHT22;23311;48.776;9.162;2023-05-07T04:39:10;12.80;95.50
292;DHT22;23311;48.776;9.162;2023-05-07T04:41:38;12.80;95.50
292;DHT22;23311;48.776;9.162;2023-05-07T04:44:06;12.80;95.50
292;DHT22;23311;48.776;9.162;2023-05-07T04:46:35;12.80;95.50
292;DHT22;23311;48.776;9.162;2023-05-07T04:49:05;12.80;95.50
292;DHT22;23311;48.776;9.162;2023-05-07T04:51:33;12.80;95.50
292;DHT22;23311;48.776;9.162;2023-05-07T04:54:01;12.80;95.50
292;DHT22;23311;48.776;9.162;2023-05-07T04:56:29;12.80;95.50
292;DHT22;23311;48.776;9.162;2023-05-07T04:58:57;12.90;95.50
292;DHT22;23311;48.776;9.162;2023-05-07T05:01:25;12.80;95.50
292;DHT22;23311;48.776;9.162;2023-05-07T05:03:53;12.80;95.50
292;DHT22;23311;48.776;9.162;2023-05-07T05:06:23;12.80;95.50
292;DHT22;23311;48.776;9.162;2023-05-07T05:08:51;12.70;95.50
292;DHT22;23311;48.776;9.162;2023-05-07T05:11:19;12.80;95.50
292;DHT22;23311;48.776;9.162;2023-05-07T05:13:47;12.80;95.50
292;DHT22;23311;48.776;9.162;2023-05-07T05:16:16;12.90;95.50
292;DHT22;23311;48.776;9.162;2023-05-07T05:18:44;12.90;95.50
292;DHT22;23311;48.776;9.162;2023-05-07T05:21:12;13.00;95.50
292;DHT22;23311;48.776;9.162;2023-05-07T05:23:41;13.10;95.50
292;DHT22;23311;48.776;9.162;2023-05-07T05:26:09;13.30;95.50
292;DHT22;23311;48.776;9.162;2023-05-07T05:28:38;13.50;95.50
292;DHT22;23311;48.776;9.162;2023-05-07T05:31:06;13.70;95.50
292;DHT22;23311;48.776;9.162;2023-05-07T05:33:34;14.00;95.50
292;DHT22;23311;48.776;9.162;2023-05-07T05:36:02;14.30;95.50
292;DHT22;23311;48.776;9.162;2023-05-07T05:38:30;14.50;95.50
292;DHT22;23311;48.776;9.162;2023-05-07T05:40:59;14.70;95.50
292;DHT22;23311;48.776;9.162;2023-05-07T05:43:27;14.90;95.50
292;DHT22;23311;48.776;9.162;2023-05-07T05:45:56;15.00;95.50
292;DHT22;23311;48.776;9.162;2023-05-07T05:48:24;15.20;95.50
292;DHT22;23311;48.776;9.162;2023-05-07T05:50:52;15.30;95.50
292;DHT22;23311;48.776;9.162;2023-05-07T05:53:20;15.40;95.50
292;DHT22;23311;48.776;9.162;2023-05-07T05:55:49;15.40;95.50
292;DHT22;23311;48.776;9.162;2023-05-07T05:58:19;15.30;95.50
292;DHT22;23311;48.776;9.162;2023-05-07T06:00:47;15.30;95.50
292;DHT22;23311;48.776;9.162;2023-05-07T06:03:19;15.40;95.50
292;DHT22;23311;48.776;9.162;2023-05-07T06:05:47;15.60;95.50
292;DHT22;23311;48.776;9.162;2023-05-07T06:08:15;16.00;95.50
292;DHT22;23311;48.776;9.162;2023-05-07T06:10:44;16.20;95.50
292;DHT22;23311;48.776;9.162;2023-05-07T06:13:12;16.40;95.50
292;DHT22;23311;48.776;9.162;2023-05-07T06:15:41;16.80;95.50
292;DHT22;23311;48.776;9.162;2023-05-07T06:18:09;17.00;95.50
292;DHT22;23311;48.776;9.162;2023-05-07T06:20:37;17.20;95.50
292;DHT22;23311;48.776;9.162;2023-05-07T06:23:05;17.20;95.50
292;DHT22;23311;48.776;9.162;2023-05-07T06:25:33;17.00;95.50
292;DHT22;23311;48.776;9.162;2023-05-07T06:28:01;17.10;95.50
292;DHT22;23311;48.776;9.162;2023-05-07T06:30:29;17.00;95.50
292;DHT22;23311;48.776;9.162;2023-05-07T06:32:59;16.80;95.50
292;DHT22;23311;48.776;9.162;2023-05-07T06:35:27;16.90;95.50
292;DHT22;23311;48.776;9.162;2023-05-07T06:37:55;16.90;95.50
292;DHT22;23311;48.776;9.162;2023-05-07T06:40:23;17.10;95.50
292;DHT22;23311;48.776;9.162;2023-05-07T06:42:51;17.70;95.50
292;DHT22;23311;48.776;9.162;2023-05-07T06:45:19;18.50;95.50
292;DHT22;23311;48.776;9.162;2023-05-07T06:47:47;19.00;94.10
292;DHT22;23311;48.776;9.162;2023-05-07T06:50:17;19.50;92.70
292;DHT22;23311;48.776;9.162;2023-05-07T06:52:45;19.70;92.40
292;DHT22;23311;48.776;9.162;2023-05-07T06:55:13;21.40;89.10
292;DHT22;23311;48.776;9.162;2023-05-07T06:57:41;22.70;85.20
292;DHT22;23311;48.776;9.162;2023-05-07T07:00:10;24.50;80.40
292;DHT22;23311;48.776;9.162;2023-05-07T07:02:39;25.00;78.20
292;DHT22;23311;48.776;9.162;2023-05-07T07:05:08;25.80;76.00
292;DHT22;23311;48.776;9.162;2023-05-07T07:07:37;26.40;74.70
292;DHT22;23311;48.776;9.162;2023-05-07T07:10:06;26.80;73.20
292;DHT22;23311;48.776;9.162;2023-05-07T07:12:35;26.50;73.10
292;DHT22;23311;48.776;9.162;2023-05-07T07:15:03;25.70;74.70
292;DHT22;23311;48.776;9.162;2023-05-07T07:17:32;25.70;75.30
292;DHT22;23311;48.776;9.162;2023-05-07T07:20:00;25.80;75.00
292;DHT22;23311;48.776;9.162;2023-05-07T07:22:29;26.00;74.10
292;DHT22;23311;48.776;9.162;2023-05-07T07:24:58;26.00;74.10
292;DHT22;23311;48.776;9.162;2023-05-07T07:27:26;26.60;72.90
292;DHT22;23311;48.776;9.162;2023-05-07T07:29:54;28.10;70.00
292;DHT22;23311;48.776;9.162;2023-05-07T07:32:22;28.70;68.20
292;DHT22;23311;48.776;9.162;2023-05-07T07:34:50;28.50;68.00
292;DHT22;23311;48.776;9.162;2023-05-07T07:37:18;27.90;69.50
292;DHT22;23311;48.776;9.162;2023-05-07T07:39:46;27.30;70.10
292;DHT22;23311;48.776;9.162;2023-05-07T07:42:16;26.50;72.30
292;DHT22;23311;48.776;9.162;2023-05-07T07:44:45;26.10;73.40
292;DHT22;23311;48.776;9.162;2023-05-07T07:47:13;28.10;70.20
292;DHT22;23311;48.776;9.162;2023-05-07T07:49:41;29.30;67.60
292;DHT22;23311;48.776;9.162;2023-05-07T07:52:09;28.80;68.00
292;DHT22;23311;48.776;9.162;2023-05-07T07:54:37;28.70;68.40
292;DHT22;23311;48.776;9.162;2023-05-07T07:57:05;28.50;68.40
292;DHT22;23311;48.776;9.162;2023-05-07T07:59:34;27.80;69.20
292;DHT22;23311;48.776;9.162;2023-05-07T08:02:02;27.00;71.00
292;DHT22;23311;48.776;9.162;2023-05-07T08:04:31;26.20;72.60
292;DHT22;23311;48.776;9.162;2023-05-07T08:07:00;25.40;74.50
292;DHT22;23311;48.776;9.162;2023-05-07T08:09:28;25.50;74.40
292;DHT22;23311;48.776;9.162;2023-05-07T08:11:56;25.90;73.90
292;DHT22;23311;48.776;9.162;2023-05-07T08:14:24;25.60;74.70
292;DHT22;23311;48.776;9.162;2023-05-07T08:16:53;25.60;74.90
292;DHT22;23311;48.776;9.162;2023-05-07T08:19:22;25.30;75.20
292;DHT22;23311;48.776;9.162;2023-05-07T08:21:50;25.10;76.70
292;DHT22;23311;48.776;9.162;2023-05-07T08:24:18;26.30;74.10
292;DHT22;23311;48.776;9.162;2023-05-07T08:26:46;27.20;71.90
292;DHT22;23311;48.776;9.162;2023-05-07T08:29:14;28.50;69.30
292;DHT22;23311;48.776;9.162;2023-05-07T08:31:42;29.70;66.80
292;DHT22;23311;48.776;9.162;2023-05-07T08:34:12;29.90;66.40
292;DHT22;23311;48.776;9.162;2023-05-07T08:36:40;30.10;65.80
292;DHT22;23311;48.776;9.162;2023-05-07T08:39:09;29.50;66.70
292;DHT22;23311;48.776;9.162;2023-05-07T08:41:37;29.50;66.60
292;DHT22;23311;48.776;9.162;2023-05-07T08:44:06;29.00;67.20
292;DHT22;23311;48.776;9.162;2023-05-07T08:46:39;29.00;67.10
292;DHT22;23311;48.776;9.162;2023-05-07T08:49:09;28.70;67.70
292;DHT22;23311;48.776;9.162;2023-05-07T08:51:38;29.40;66.90
292;DHT22;23311;48.776;9.162;2023-05-07T08:54:06;29.40;66.10
292;DHT22;23311;48.776;9.162;2023-05-07T08:56:35;29.20;66.40
292;DHT22;23311;48.776;9.162;2023-05-07T08:59:03;29.50;66.60
292;DHT22;23311;48.776;9.162;2023-05-07T09:01:31;30.20;64.70
292;DHT22;23311;48.776;9.162;2023-05-07T09:03:59;29.90;65.30
292;DHT22;23311;48.776;9.162;2023-05-07T09:06:27;30.30;64.90
292;DHT22;23311;48.776;9.162;2023-05-07T09:08:56;30.50;64.30
292;DHT22;23311;48.776;9.162;2023-05-07T09:11:25;31.00;63.30
292;DHT22;23311;48.776;9.162;2023-05-07T09:13:53;31.30;62.90
292;DHT22;23311;48.776;9.162;2023-05-07T09:16:23;31.00;63.00
292;DHT22;23311;48.776;9.162;2023-05-07T09:18:53;30.50;64.00
292;DHT22;23311;48.776;9.162;2023-05-07T09:21:21;31.10;63.10
292;DHT22;23311;48.776;9.162;2023-05-07T09:23:51;30.80;63.30
292;DHT22;23311;48.776;9.162;2023-05-07T09:26:23;30.10;64.10
292;DHT22;23311;48.776;9.162;2023-05-07T09:28:51;30.40;64.00
292;DHT22;23311;48.776;9.162;2023-05-07T09:31:20;30.80;63.50
292;DHT22;23311;48.776;9.162;2023-05-07T09:33:50;31.20;62.70
292;DHT22;23311;48.776;9.162;2023-05-07T09:36:18;31.40;62.30
292;DHT22;23311;48.776;9.162;2023-05-07T09:38:46;31.20;62.50
292;DHT22;23311;48.776;9.162;2023-05-07T09:41:14;30.50;63.30
292;DHT22;23311;48.776;9.162;2023-05-07T09:43:44;31.10;62.70
292;DHT22;23311;48.776;9.162;2023-05-07T09:46:13;31.90;60.80
292;DHT22;23311;48.776;9.162;2023-05-07T09:48:44;31.80;60.30
292;DHT22;23311;48.776;9.162;2023-05-07T09:51:18;31.80;60.30
292;DHT22;23311;48.776;9.162;2023-05-07T09:53:50;31.50;60.80
292;DHT22;23311;48.776;9.162;2023-05-07T09:56:19;31.60;60.80
292;DHT22;23311;48.776;9.162;2023-05-07T09:58:49;31.30;60.50
292;DHT22;23311;48.776;9.162;2023-05-07T10:01:20;31.10;61.00
292;DHT22;23311;48.776;9.162;2023-05-07T10:03:50;31.30;60.80
292;DHT22;23311;48.776;9.162;2023-05-07T10:06:20;31.30;61.30
292;DHT22;23311;48.776;9.162;2023-05-07T10:08:49;31.30;61.10
292;DHT22;23311;48.776;9.162;2023-05-07T10:11:18;31.00;62.10
292;DHT22;23311;48.776;9.162;2023-05-07T10:13:49;30.80;61.80
292;DHT22;23311;48.776;9.162;2023-05-07T10:16:18;30.90;62.60
292;DHT22;23311;48.776;9.162;2023-05-07T10:18:46;31.30;61.70
292;DHT22;23311;48.776;9.162;2023-05-07T10:21:16;31.00;62.30
292;DHT22;23311;48.776;9.162;2023-05-07T10:23:47;31.80;60.90
292;DHT22;23311;48.776;9.162;2023-05-07T10:26:18;32.10;60.40
292;DHT22;23311;48.776;9.162;2023-05-07T10:28:53;31.70;60.50
292;DHT22;23311;48.776;9.162;2023-05-07T10:31:42;31.80;60.30
292;DHT22;23311;48.776;9.162;2023-05-07T10:34:15;31.90;60.30
292;DHT22;23311;48.776;9.162;2023-05-07T10:36:44;32.10;59.70
292;DHT22;23311;48.776;9.162;2023-05-07T10:39:13;32.90;58.20
292;DHT22;23311;48.776;9.162;2023-05-07T10:41:41;33.60;57.60
292;DHT22;23311;48.776;9.162;2023-05-07T10:44:11;33.60;57.20
292;DHT22;23311;48.776;9.162;2023-05-07T10:46:39;34.10;55.90
292;DHT22;23311;48.776;9.162;2023-05-07T10:49:11;33.10;57.10
292;DHT22;23311;48.776;9.162;2023-05-07T10:51:39;31.70;59.50
292;DHT22;23311;48.776;9.162;2023-05-07T10:54:19;30.60;61.60
292;DHT22;23311;48.776;9.162;2023-05-07T10:56:47;29.60;63.00
292;DHT22;23311;48.776;9.162;2023-05-07T10:59:36;29.00;63.50
292;DHT22;23311;48.776;9.162;2023-05-07T11:02:10;29.20;63.70
292;DHT22;23311;48.776;9.162;2023-05-07T11:04:41;30.20;62.70
292;DHT22;23311;48.776;9.162;2023-05-07T11:07:26;30.40;62.50
292;DHT22;23311;48.776;9.162;2023-05-07T11:10:04;29.60;64.20
292;DHT22;23311;48.776;9.162;2023-05-07T11:12:49;29.10;65.20
292;DHT22;23311;48.776;9.162;2023-05-07T11:15:35;29.00;65.40
292;DHT22;23311;48.776;9.162;2023-05-07T11:18:03;28.30;65.10
292;DHT22;23311;48.776;9.162;2023-05-07T11:20:55;27.40;67.10
292;DHT22;23311;48.776;9.162;2023-05-07T11:26:45;27.10;68.30
292;DHT22;23311;48.776;9.162;2023-05-07T11:29:16;26.90;68.70
292;DHT22;23311;48.776;9.162;2023-05-07T11:31:53;27.00;68.60
292;DHT22;23311;48.776;9.162;2023-05-07T11:34:22;27.50;66.30
292;DHT22;23311;48.776;9.162;2023-05-07T11:36:51;27.30;65.60
292;DHT22;23311;48.776;9.162;2023-05-07T11:39:27;27.10;65.60
292;DHT22;23311;48.776;9.162;2023-05-07T11:41:55;26.80;66.00
292;DHT22;23311;48.776;9.162;2023-05-07T11:44:23;26.60;66.60
292;DHT22;23311;48.776;9.162;2023-05-07T11:46:53;26.40;67.90
292;DHT22;23311;48.776;9.162;2023-05-07T11:49:25;26.20;68.50
292;DHT22;23311;48.776;9.162;2023-05-07T11:51:54;25.80;70.70
292;DHT22;23311;48.776;9.162;2023-05-07T11:54:22;25.40;72.80
292;DHT22;23311;48.776;9.162;2023-05-07T11:56:52;24.70;76.00
292;DHT22;23311;48.776;9.162;2023-05-07T11:59:20;24.30;77.60
292;DHT22;23311;48.776;9.162;2023-05-07T12:01:52;23.80;80.20
292;DHT22;23311;48.776;9.162;2023-05-07T12:04:24;23.10;85.30
292;DHT22;23311;48.776;9.162;2023-05-07T12:06:54;22.40;90.10
292;DHT22;23311;48.776;9.162;2023-05-07T12:09:22;21.50;94.60
292;DHT22;23311;48.776;9.162;2023-05-07T12:11:51;20.70;95.50
292;DHT22;23311;48.776;9.162;2023-05-07T12:14:19;19.90;95.50
292;DHT22;23311;48.776;9.162;2023-05-07T12:16:47;19.10;95.50
292;DHT22;23311;48.776;9.162;2023-05-07T12:19:17;18.70;95.50
292;DHT22;23311;48.776;9.162;2023-05-07T12:21:45;18.40;95.50
292;DHT22;23311;48.776;9.162;2023-05-07T12:24:14;17.90;95.50
292;DHT22;23311;48.776;9.162;2023-05-07T12:26:43;17.40;95.50
292;DHT22;23311;48.776;9.162;2023-05-07T12:29:11;17.00;95.50
292;DHT22;23311;48.776;9.162;2023-05-07T12:31:40;16.90;95.50
292;DHT22;23311;48.776;9.162;2023-05-07T12:34:10;16.70;95.50
292;DHT22;23311;48.776;9.162;2023-05-07T12:36:40;16.50;95.50
292;DHT22;23311;48.776;9.162;2023-05-07T12:39:08;16.50;95.50
292;DHT22;23311;48.776;9.162;2023-05-07T12:41:52;16.50;95.50
292;DHT22;23311;48.776;9.162;2023-05-07T12:44:22;16.40;95.50
292;DHT22;23311;48.776;9.162;2023-05-07T12:46:50;16.50;95.50
292;DHT22;23311;48.776;9.162;2023-05-07T12:49:19;16.40;95.50
292;DHT22;23311;48.776;9.162;2023-05-07T12:51:53;16.30;95.50
292;DHT22;23311;48.776;9.162;2023-05-07T12:54:28;16.10;95.50
292;DHT22;23311;48.776;9.162;2023-05-07T12:57:01;16.00;95.50
292;DHT22;23311;48.776;9.162;2023-05-07T12:59:33;16.00;95.50
292;DHT22;23311;48.776;9.162;2023-05-07T13:02:01;15.90;95.50
292;DHT22;23311;48.776;9.162;2023-05-07T13:04:29;15.80;95.50
292;DHT22;23311;48.776;9.162;2023-05-07T13:06:59;15.80;95.50
292;DHT22;23311;48.776;9.162;2023-05-07T13:09:27;15.70;95.50
292;DHT22;23311;48.776;9.162;2023-05-07T13:11:55;15.70;95.50
292;DHT22;23311;48.776;9.162;2023-05-07T13:14:26;15.60;95.50
292;DHT22;23311;48.776;9.162;2023-05-07T13:16:54;15.60;95.50
292;DHT22;23311;48.776;9.162;2023-05-07T13:19:22;15.50;95.50
292;DHT22;23311;48.776;9.162;2023-05-07T13:21:50;15.60;95.50
292;DHT22;23311;48.776;9.162;2023-05-07T13:24:20;15.40;95.50
292;DHT22;23311;48.776;9.162;2023-05-07T13:26:48;15.20;95.50
292;DHT22;23311;48.776;9.162;2023-05-07T13:29:17;15.10;95.50
292;DHT22;23311;48.776;9.162;2023-05-07T13:31:45;15.10;95.50
292;DHT22;23311;48.776;9.162;2023-05-07T13:34:14;15.10;95.50
292;DHT22;23311;48.776;9.162;2023-05-07T13:36:42;15.20;95.50
292;DHT22;23311;48.776;9.162;2023-05-07T13:39:10;15.20;95.50
292;DHT22;23311;48.776;9.162;2023-05-07T13:41:40;15.30;95.50
292;DHT22;23311;48.776;9.162;2023-05-07T13:44:08;15.30;95.50
292;DHT22;23311;48.776;9.162;2023-05-07T13:46:36;15.30;95.50
292;DHT22;23311;48.776;9.162;2023-05-07T13:49:04;15.40;95.50
292;DHT22;23311;48.776;9.162;2023-05-07T13:51:32;15.40;95.50
292;DHT22;23311;48.776;9.162;2023-05-07T13:54:01;15.40;95.50
292;DHT22;23311;48.776;9.162;2023-05-07T13:56:29;15.50;95.50
292;DHT22;23311;48.776;9.162;2023-05-07T13:59:00;15.50;95.50
292;DHT22;23311;48.776;9.162;2023-05-07T14:01:28;15.70;95.50
292;DHT22;23311;48.776;9.162;2023-05-07T14:03:57;15.70;95.50
292;DHT22;23311;48.776;9.162;2023-05-07T14:06:26;15.70;95.50
292;DHT22;23311;48.776;9.162;2023-05-07T14:08:54;15.60;95.50
292;DHT22;23311;48.776;9.162;2023-05-07T14:11:24;15.60;95.50
292;DHT22;23311;48.776;9.162;2023-05-07T14:13:52;15.50;95.50
292;DHT22;23311;48.776;9.162;2023-05-07T14:16:22;15.60;95.50
292;DHT22;23311;48.776;9.162;2023-05-07T14:18:50;15.50;95.50
292;DHT22;23311;48.776;9.162;2023-05-07T14:21:18;15.50;95.50
292;DHT22;23311;48.776;9.162;2023-05-07T14:23:46;15.40;95.50
292;DHT22;23311;48.776;9.162;2023-05-07T14:26:15;15.40;95.50
292;DHT22;23311;48.776;9.162;2023-05-07T14:28:42;15.50;95.50
292;DHT22;23311;48.776;9.162;2023-05-07T14:31:13;15.50;95.50
292;DHT22;23311;48.776;9.162;2023-05-07T14:33:42;15.50;95.50
292;DHT22;23311;48.776;9.162;2023-05-07T14:36:10;15.40;95.50
292;DHT22;23311;48.776;9.162;2023-05-07T14:38:38;15.40;95.50
292;DHT22;23311;48.776;9.162;2023-05-07T14:41:06;15.40;95.50
292;DHT22;23311;48.776;9.162;2023-05-07T14:43:34;15.40;95.50
292;DHT22;23311;48.776;9.162;2023-05-07T14:46:02;15.40;95.50
292;DHT22;23311;48.776;9.162;2023-05-07T14:48:30;15.40;95.50
292;DHT22;23311;48.776;9.162;2023-05-07T14:51:00;15.40;95.50
292;DHT22;23311;48.776;9.162;2023-05-07T14:53:28;15.50;95.50
292;DHT22;23311;48.776;9.162;2023-05-07T14:55:56;15.40;95.50
292;DHT22;23311;48.776;9.162;2023-05-07T14:58:24;15.40;95.50
292;DHT22;23311;48.776;9.162;2023-05-07T15:00:52;15.50;95.50
292;DHT22;23311;48.776;9.162;2023-05-07T15:03:20;15.50;95.50
292;DHT22;23311;48.776;9.162;2023-05-07T15:05:48;15.50;95.50
292;DHT22;23311;48.776;9.162;2023-05-07T15:08:19;15.60;95.50
292;DHT22;23311;48.776;9.162;2023-05-07T15:10:47;15.60;95.50
292;DHT22;23311;48.776;9.162;2023-05-07T15:13:15;15.60;95.50
292;DHT22;23311;48.776;9.162;2023-05-07T15:15:44;15.70;95.50
292;DHT22;23311;48.776;9.162;2023-05-07T15:18:12;15.70;95.50
292;DHT22;23311;48.776;9.162;2023-05-07T15:20:43;15.80;95.50
292;DHT22;23311;48.776;9.162;2023-05-07T15:23:11;16.00;95.50
292;DHT22;23311;48.776;9.162;2023-05-07T15:25:42;16.10;95.50
292;DHT22;23311;48.776;9.162;2023-05-07T15:28:10;16.10;95.50
292;DHT22;23311;48.776;9.162;2023-05-07T15:30:38;16.10;95.50
292;DHT22;23311;48.776;9.162;2023-05-07T15:33:06;16.10;95.50
292;DHT22;23311;48.776;9.162;2023-05-07T15:35:34;16.20;95.50
292;DHT22;23311;48.776;9.162;2023-05-07T15:38:02;16.20;95.50
292;DHT22;23311;48.776;9.162;2023-05-07T15:40:30;16.10;95.50
292;DHT22;23311;48.776;9.162;2023-05-07T15:43:00;16.10;95.50
292;DHT22;23311;48.776;9.162;2023-05-07T15:45:29;16.20;95.50
292;DHT22;23311;48.776;9.162;2023-05-07T15:47:57;16.40;95.50
292;DHT22;23311;48.776;9.162;2023-05-07T15:50:25;16.40;95.50
292;DHT22;23311;48.776;9.162;2023-05-07T15:52:55;16.50;95.50
292;DHT22;23311;48.776;9.162;2023-05-07T15:55:23;16.60;95.50
292;DHT22;23311;48.776;9.162;2023-05-07T15:57:52;16.60;95.50
292;DHT22;23311;48.776;9.162;2023-05-07T16:00:22;16.60;95.50
292;DHT22;23311;48.776;9.162;2023-05-07T16:02:50;16.60;95.50
292;DHT22;23311;48.776;9.162;2023-05-07T16:05:18;16.50;95.50
292;DHT22;23311;48.776;9.162;2023-05-07T16:07:47;16.50;95.50
292;DHT22;23311;48.776;9.162;2023-05-07T16:10:15;16.50;95.50
292;DHT22;23311;48.776;9.162;2023-05-07T16:12:43;16.50;95.50
292;DHT22;23311;48.776;9.162;2023-05-07T16:15:11;16.60;95.50
292;DHT22;23311;48.776;9.162;2023-05-07T16:17:41;16.60;95.50